Kenney, Illinois
Current Conditions -  °F | °C
As of 11:15 AM on Friday 24 Oct 2014 (Local Time) from KAAA Reporting Station
Haze Haze  
Wind Chill: 16°   Ceiling: Unl
Heat Index: 16°   Visibility: 5mi
Dew Point: 12°   Wind: 3mph
Humidity: 78%   Direction: 190°S
Pressure: 30.07"   Gusts: NA
Location:  40.1°N, 89.09°W
Report Text: KAAA 241615Z AUTO 19003KT 5SM HZ CLR 16/12 A3007 RMK AO2 T01630124
Loading
Personal Weather Stations






























Interactive Weather Map
Tropical Storm Tracking
New forecast layout! Learn more

10-Day Weather Forecast

Advertisements
Track Severe Weather on mobile